createdAt,value
2022-10-23T00:00:57.638Z,14.77
2022-10-23T00:03:24.249Z,14.69
2022-10-23T00:05:51.041Z,14.76
2022-10-23T00:08:17.670Z,14.79
2022-10-23T00:10:44.335Z,14.82
2022-10-23T00:13:10.956Z,14.77
2022-10-23T00:15:37.637Z,14.77
2022-10-23T00:18:04.653Z,14.74
2022-10-23T00:20:31.263Z,14.69
2022-10-23T00:22:57.911Z,14.74
2022-10-23T00:25:24.556Z,14.72
2022-10-23T00:27:51.168Z,14.73
2022-10-23T00:30:17.792Z,14.70
2022-10-23T00:32:44.462Z,14.67
2022-10-23T00:35:11.144Z,14.67
2022-10-23T00:37:37.774Z,14.62
2022-10-23T00:40:05.145Z,14.60
2022-10-23T00:42:31.793Z,14.53
2022-10-23T00:45:21.638Z,14.51
2022-10-23T00:47:48.744Z,14.52
2022-10-23T00:50:16.004Z,14.56
2022-10-23T00:52:47.461Z,14.61
2022-10-23T00:55:14.871Z,14.68
2022-10-23T00:57:43.915Z,14.62
2022-10-23T01:00:20.645Z,14.57
2022-10-23T01:02:47.418Z,14.55
2022-10-23T01:05:14.224Z,14.52
2022-10-23T01:07:57.189Z,14.48
2022-10-23T01:10:47.195Z,14.46
2022-10-23T01:13:55.982Z,14.47
2022-10-23T01:16:28.811Z,14.49
2022-10-23T01:19:04.090Z,14.50
2022-10-23T01:22:09.787Z,14.59
2022-10-23T01:24:43.519Z,14.60
2022-10-23T01:27:20.021Z,14.61
2022-10-23T01:29:59.425Z,14.50
2022-10-23T01:32:48.644Z,14.46
2022-10-23T01:35:20.201Z,14.48
2022-10-23T01:37:53.221Z,14.51
2022-10-23T01:40:24.402Z,14.57
2022-10-23T01:42:55.566Z,14.63
2022-10-23T01:45:37.386Z,14.58
2022-10-23T01:48:05.916Z,14.53
2022-10-23T01:50:33.511Z,14.52
2022-10-23T01:53:00.145Z,14.55
2022-10-23T01:55:27.017Z,14.61
2022-10-23T01:57:54.064Z,14.69
2022-10-23T02:00:21.900Z,14.61
2022-10-23T02:02:49.168Z,14.63
2022-10-23T02:05:19.201Z,14.71
2022-10-23T02:07:46.197Z,14.66
2022-10-23T02:10:13.162Z,14.72
2022-10-23T02:12:42.296Z,14.70
2022-10-23T02:15:09.122Z,14.65
2022-10-23T02:18:00.548Z,14.58
2022-10-23T02:20:56.350Z,14.52
2022-10-23T02:23:29.869Z,14.52
2022-10-23T02:26:20.265Z,14.50
2022-10-23T02:28:53.360Z,14.50
2022-10-23T02:31:22.441Z,14.44
2022-10-23T02:33:49.231Z,14.47
2022-10-23T02:36:16.480Z,14.40
2022-10-23T02:38:44.989Z,14.42
2022-10-23T02:41:30.011Z,14.48
2022-10-23T02:44:18.359Z,14.49
2022-10-23T02:47:05.252Z,14.52
2022-10-23T02:49:41.007Z,14.53
2022-10-23T02:52:22.852Z,14.50
2022-10-23T02:55:18.054Z,14.54
2022-10-23T02:57:59.885Z,14.58
2022-10-23T03:00:29.473Z,14.61
2022-10-23T03:03:02.814Z,14.62
2022-10-23T03:05:32.405Z,14.68
2022-10-23T03:07:59.166Z,14.66
2022-10-23T03:10:25.918Z,14.68
2022-10-23T03:12:52.560Z,14.65
2022-10-23T03:15:19.504Z,14.60
2022-10-23T03:17:46.119Z,14.63
2022-10-23T03:20:13.139Z,14.63
2022-10-23T03:22:40.192Z,14.59
2022-10-23T03:25:07.410Z,14.58
2022-10-23T03:27:34.290Z,14.60
2022-10-23T03:30:00.879Z,14.64
2022-10-23T03:32:27.444Z,14.65
2022-10-23T03:34:54.138Z,14.70
2022-10-23T03:37:20.784Z,14.69
2022-10-23T03:39:47.411Z,14.75
2022-10-23T03:42:14.061Z,14.78
2022-10-23T03:44:40.676Z,14.76
2022-10-23T03:47:07.651Z,14.76
2022-10-23T03:49:34.288Z,14.80
2022-10-23T03:52:00.875Z,14.82
2022-10-23T03:54:28.277Z,14.87
2022-10-23T03:56:57.434Z,14.82
2022-10-23T03:59:24.477Z,14.92
2022-10-23T04:01:51.482Z,14.83
2022-10-23T04:04:18.441Z,14.85
2022-10-23T04:06:45.367Z,14.86
2022-10-23T04:11:39.492Z,14.86
2022-10-23T04:14:06.120Z,14.85
2022-10-23T04:16:32.708Z,14.81
2022-10-23T04:18:59.315Z,14.83
2022-10-23T04:21:25.888Z,14.80
2022-10-23T04:23:53.168Z,14.81
2022-10-23T04:26:19.852Z,14.85
2022-10-23T04:28:46.480Z,14.86
2022-10-23T04:31:13.298Z,14.87
2022-10-23T04:33:39.896Z,14.91
2022-10-23T04:36:06.901Z,14.92
2022-10-23T04:38:33.524Z,14.85
2022-10-23T04:41:00.122Z,14.90
2022-10-23T04:43:26.697Z,14.92
2022-10-23T04:45:53.266Z,14.89
2022-10-23T04:48:19.924Z,14.89
2022-10-23T04:50:56.592Z,14.85
2022-10-23T04:53:23.345Z,14.88
2022-10-23T04:55:51.845Z,14.84
2022-10-23T04:58:18.515Z,14.82
2022-10-23T05:00:45.572Z,14.84
2022-10-23T05:03:12.311Z,14.79
2022-10-23T05:05:42.108Z,14.79
2022-10-23T05:08:15.557Z,14.77
2022-10-23T05:10:44.888Z,14.77
2022-10-23T05:13:14.636Z,14.80
2022-10-23T05:15:41.223Z,14.81
2022-10-23T05:18:18.207Z,14.82
2022-10-23T05:20:51.101Z,14.82
2022-10-23T05:23:18.964Z,14.84
2022-10-23T05:25:45.715Z,14.91
2022-10-23T05:28:12.291Z,14.93
2022-10-23T05:30:39.550Z,14.95
2022-10-23T05:33:06.303Z,14.98
2022-10-23T05:35:32.973Z,14.97
2022-10-23T05:38:00.351Z,15.01
2022-10-23T05:40:27.023Z,15.03
2022-10-23T05:42:53.877Z,15.05
2022-10-23T05:45:23.175Z,15.06
2022-10-23T05:48:05.617Z,14.99
2022-10-23T05:50:38.358Z,15.01
2022-10-23T05:53:04.982Z,15.03
2022-10-23T05:55:31.730Z,15.00
2022-10-23T05:57:58.503Z,14.96
2022-10-23T06:00:25.144Z,14.97
2022-10-23T06:02:51.756Z,14.98
2022-10-23T06:05:18.399Z,14.97
2022-10-23T06:07:45.293Z,15.04
2022-10-23T06:10:12.044Z,15.06
2022-10-23T06:12:38.619Z,15.07
2022-10-23T06:15:05.856Z,15.12
2022-10-23T06:17:32.469Z,15.03
2022-10-23T06:20:02.588Z,15.09
2022-10-23T06:22:29.818Z,15.06
2022-10-23T06:24:56.510Z,15.09
2022-10-23T06:27:23.200Z,15.08
2022-10-23T06:29:52.481Z,15.16
2022-10-23T06:32:21.713Z,15.21
2022-10-23T06:34:48.490Z,15.25
2022-10-23T06:37:15.157Z,15.27
2022-10-23T06:39:41.852Z,15.25
2022-10-23T06:42:08.591Z,15.19
2022-10-23T06:44:35.317Z,15.18
2022-10-23T06:47:02.340Z,15.17
2022-10-23T06:49:39.363Z,15.11
2022-10-23T06:52:11.034Z,15.13
2022-10-23T06:54:49.130Z,15.12
2022-10-23T06:57:15.773Z,15.16
2022-10-23T06:59:42.382Z,15.15
2022-10-23T07:02:09.665Z,15.18
2022-10-23T07:04:36.314Z,15.20
2022-10-23T07:07:02.961Z,15.25
2022-10-23T07:09:29.574Z,15.31
2022-10-23T07:11:58.598Z,15.32
2022-10-23T07:14:25.221Z,15.34
2022-10-23T07:16:51.822Z,15.37
2022-10-23T07:19:18.436Z,15.40
2022-10-23T07:21:45.093Z,15.46
2022-10-23T07:24:11.831Z,15.48
2022-10-23T07:26:38.529Z,15.51
2022-10-23T07:29:12.548Z,15.55
2022-10-23T07:31:39.898Z,15.64
2022-10-23T07:34:17.061Z,15.67
2022-10-23T07:36:44.366Z,15.69
2022-10-23T07:39:12.046Z,15.72
2022-10-23T07:41:38.675Z,15.72
2022-10-23T07:44:05.442Z,15.74
2022-10-23T07:46:32.067Z,15.78
2022-10-23T07:48:58.766Z,15.83
2022-10-23T07:51:25.402Z,15.85
2022-10-23T07:53:51.963Z,15.85
2022-10-23T07:56:23.568Z,15.88
2022-10-23T07:58:54.177Z,15.96
2022-10-23T08:01:29.970Z,16.01
2022-10-23T08:03:56.682Z,16.06
2022-10-23T08:06:23.295Z,16.10
2022-10-23T08:08:49.939Z,16.14
2022-10-23T08:11:20.555Z,16.20
2022-10-23T08:13:47.182Z,16.27
2022-10-23T08:16:13.957Z,16.36
2022-10-23T08:18:42.843Z,16.35
2022-10-23T08:21:10.244Z,16.39
2022-10-23T08:23:36.858Z,16.52
2022-10-23T08:26:05.810Z,16.57
2022-10-23T08:28:32.875Z,16.65
2022-10-23T08:30:59.597Z,16.69
2022-10-23T08:33:26.290Z,16.76
2022-10-23T08:35:52.978Z,16.79
2022-10-23T08:38:19.638Z,16.89
2022-10-23T08:40:48.142Z,16.92
2022-10-23T08:43:22.026Z,17.00
2022-10-23T08:46:04.177Z,17.03
2022-10-23T08:48:45.512Z,17.04
2022-10-23T08:51:22.927Z,17.11
2022-10-23T08:54:22.048Z,17.12
2022-10-23T08:57:14.333Z,17.16
2022-10-23T08:59:50.665Z,17.17
2022-10-23T09:02:21.941Z,17.20
2022-10-23T09:04:55.478Z,17.21
2022-10-23T09:07:56.344Z,17.25
2022-10-23T09:10:57.445Z,17.31
2022-10-23T09:13:58.537Z,17.30
2022-10-23T09:16:36.268Z,17.34
2022-10-23T09:19:03.013Z,17.41
2022-10-23T09:21:30.056Z,17.46
2022-10-23T09:23:57.124Z,17.45
2022-10-23T09:26:23.825Z,17.49
2022-10-23T09:28:57.669Z,17.53
2022-10-23T09:31:24.289Z,17.52
2022-10-23T09:33:59.677Z,17.50
2022-10-23T09:36:29.849Z,17.57
2022-10-23T09:38:59.301Z,17.58
2022-10-23T09:41:37.935Z,17.64
2022-10-23T09:44:07.595Z,17.65
2022-10-23T09:46:46.420Z,17.71
2022-10-23T09:56:43.151Z,17.89
2022-10-23T09:59:39.285Z,17.94
2022-10-23T10:02:29.580Z,18.01
2022-10-23T10:05:12.180Z,18.05
2022-10-23T10:07:39.054Z,18.05
2022-10-23T10:10:08.060Z,18.04
2022-10-23T10:12:59.356Z,18.02
2022-10-23T10:15:48.100Z,18.01
2022-10-23T10:18:40.759Z,18.01
2022-10-23T10:21:15.410Z,18.00
2022-10-23T10:23:56.344Z,18.04
2022-10-23T10:26:47.968Z,18.07
2022-10-23T10:29:36.220Z,18.08
2022-10-23T10:32:41.924Z,18.14
2022-10-23T10:35:38.507Z,18.18
2022-10-23T10:38:20.346Z,18.22
2022-10-23T10:41:05.612Z,18.26
2022-10-23T10:43:47.016Z,18.26
2022-10-23T10:46:51.915Z,18.32
2022-10-23T10:49:36.921Z,18.37
2022-10-23T10:52:09.629Z,18.36
2022-10-23T10:54:57.828Z,18.39
2022-10-23T10:57:59.894Z,18.47
2022-10-23T11:00:29.077Z,18.53
2022-10-23T11:03:24.890Z,18.53
2022-10-23T11:05:52.085Z,18.60
2022-10-23T11:08:22.479Z,18.61
2022-10-23T11:10:53.369Z,18.64
2022-10-23T11:13:40.353Z,18.71
2022-10-23T11:16:23.856Z,18.71
2022-10-23T11:19:14.180Z,18.72
2022-10-23T11:22:04.203Z,18.73
2022-10-23T11:24:39.260Z,18.70
2022-10-23T11:27:45.633Z,18.74
2022-10-23T11:30:28.876Z,18.79
2022-10-23T11:32:59.899Z,18.81
2022-10-23T11:35:48.962Z,18.86
2022-10-23T11:38:28.225Z,18.87
2022-10-23T11:41:04.187Z,18.85
2022-10-23T11:44:35.417Z,18.86
2022-10-23T11:47:06.884Z,18.87
2022-10-23T11:49:33.532Z,18.89
2022-10-23T11:52:05.162Z,18.87
2022-10-23T11:54:32.457Z,18.87
2022-10-23T11:57:10.917Z,18.85
2022-10-23T11:59:49.743Z,18.87
2022-10-23T12:02:36.877Z,18.90
2022-10-23T12:05:38.466Z,18.98
2022-10-23T12:08:18.214Z,19.15
2022-10-23T12:10:47.801Z,19.25
2022-10-23T12:13:44.441Z,19.36
2022-10-23T12:16:11.167Z,19.44
2022-10-23T12:18:53.119Z,19.62
2022-10-23T12:21:28.094Z,19.76
2022-10-23T12:24:34.913Z,19.90
2022-10-23T12:27:33.502Z,20.02
2022-10-23T12:30:18.964Z,19.97
2022-10-23T12:33:05.804Z,19.97
2022-10-23T12:35:51.466Z,19.96
2022-10-23T12:38:34.030Z,19.87
2022-10-23T12:41:29.994Z,19.83
2022-10-23T12:43:59.401Z,19.80
2022-10-23T12:46:41.663Z,19.79
2022-10-23T12:49:16.933Z,19.84
2022-10-23T12:51:57.847Z,19.93
2022-10-23T12:57:44.262Z,19.91
2022-10-23T13:00:17.067Z,19.86
2022-10-23T13:02:46.734Z,19.85
2022-10-23T13:05:18.625Z,19.85
2022-10-23T13:07:47.605Z,19.85
2022-10-23T13:10:16.040Z,19.80
2022-10-23T13:12:47.170Z,19.71
2022-10-23T13:15:19.750Z,19.66
2022-10-23T13:17:58.503Z,19.64
2022-10-23T13:20:29.793Z,19.61
2022-10-23T13:23:09.516Z,19.59
2022-10-23T13:25:37.963Z,19.58
2022-10-23T13:28:07.645Z,19.54
2022-10-23T13:30:46.443Z,19.50
2022-10-23T13:33:23.380Z,19.48
2022-10-23T13:36:01.823Z,19.42
2022-10-23T13:38:38.510Z,19.39
2022-10-23T13:41:06.749Z,19.36
2022-10-23T13:43:34.376Z,19.34
2022-10-23T13:46:01.773Z,19.30
2022-10-23T13:48:29.231Z,19.29
2022-10-23T13:51:02.923Z,19.29
2022-10-23T13:53:35.127Z,19.30
2022-10-23T13:56:04.469Z,19.29
2022-10-23T13:58:31.275Z,19.29
2022-10-23T14:00:58.696Z,19.28
2022-10-23T14:03:25.382Z,19.28
2022-10-23T14:05:52.372Z,19.28
2022-10-23T14:08:19.370Z,19.28
2022-10-23T14:10:46.473Z,19.27
2022-10-23T14:13:13.200Z,19.28
2022-10-23T14:15:39.917Z,19.27
2022-10-23T14:18:08.434Z,19.25
2022-10-23T14:20:35.642Z,19.24
2022-10-23T14:23:02.284Z,19.24
2022-10-23T14:25:29.085Z,19.22
2022-10-23T14:27:58.183Z,19.22
2022-10-23T14:30:24.832Z,19.21
2022-10-23T14:32:52.564Z,19.24
2022-10-23T14:35:19.522Z,19.18
2022-10-23T14:37:46.716Z,19.17
2022-10-23T14:40:13.610Z,19.16
2022-10-23T14:42:40.283Z,19.15
2022-10-23T14:45:07.561Z,19.16
2022-10-23T14:47:48.742Z,19.15
2022-10-23T14:50:34.247Z,19.14
2022-10-23T14:53:26.069Z,19.14
2022-10-23T14:56:20.928Z,19.12
2022-10-23T15:02:46.665Z,19.08
2022-10-23T15:05:38.595Z,19.06
2022-10-23T15:08:05.831Z,19.02
2022-10-23T15:10:54.067Z,19.02
2022-10-23T15:13:20.826Z,19.01
2022-10-23T15:15:47.574Z,19.02
2022-10-23T15:18:14.962Z,18.96
2022-10-23T15:20:41.803Z,18.88
2022-10-23T15:23:08.502Z,18.86
2022-10-23T15:25:35.406Z,18.81
2022-10-23T15:28:02.196Z,18.79
2022-10-23T15:30:28.940Z,18.70
2022-10-23T15:32:55.647Z,18.68
2022-10-23T15:35:22.448Z,18.64
2022-10-23T15:37:49.127Z,18.58
2022-10-23T15:40:15.919Z,18.56
2022-10-23T15:42:42.801Z,18.53
2022-10-23T15:45:10.685Z,18.52
2022-10-23T15:47:37.369Z,18.53
2022-10-23T15:50:04.390Z,18.54
2022-10-23T15:52:31.095Z,18.45
2022-10-23T15:55:03.863Z,18.32
2022-10-23T15:57:31.351Z,18.28
2022-10-23T15:59:58.194Z,18.17
2022-10-23T16:02:24.876Z,18.05
2022-10-23T16:04:51.487Z,17.94
2022-10-23T16:07:18.104Z,17.86
2022-10-23T16:09:44.844Z,17.87
2022-10-23T16:12:11.531Z,17.81
2022-10-23T16:14:39.266Z,17.77
2022-10-23T16:17:07.648Z,17.76
2022-10-23T16:19:34.526Z,17.76
2022-10-23T16:22:01.415Z,17.73
2022-10-23T16:24:28.035Z,17.73
2022-10-23T16:26:56.498Z,17.70
2022-10-23T16:29:24.595Z,17.65
2022-10-23T16:31:52.931Z,17.69
2022-10-23T16:34:20.006Z,17.67
2022-10-23T16:36:47.208Z,17.61
2022-10-23T16:39:15.603Z,17.60
2022-10-23T16:41:42.251Z,17.55
2022-10-23T16:44:08.961Z,17.53
2022-10-23T16:46:37.452Z,17.50
2022-10-23T16:49:04.554Z,17.51
2022-10-23T16:51:31.780Z,17.51
2022-10-23T16:53:58.739Z,17.50
2022-10-23T16:56:31.253Z,17.41
2022-10-23T17:01:31.233Z,17.30
2022-10-23T17:03:58.051Z,17.21
2022-10-23T17:06:32.606Z,17.13
2022-10-23T17:09:01.360Z,17.07
2022-10-23T17:11:30.603Z,17.06
2022-10-23T17:14:00.884Z,17.02
2022-10-23T17:16:39.725Z,17.03
2022-10-23T17:19:16.031Z,17.10
2022-10-23T17:21:48.189Z,17.14
2022-10-23T17:24:14.825Z,17.20
2022-10-23T17:26:42.133Z,17.22
2022-10-23T17:29:10.720Z,17.21
2022-10-23T17:31:39.705Z,17.23
2022-10-23T17:34:08.212Z,17.23
2022-10-23T17:36:38.848Z,17.23
2022-10-23T17:39:07.148Z,17.19
2022-10-23T17:41:33.905Z,17.22
2022-10-23T17:44:00.611Z,17.16
2022-10-23T17:46:29.367Z,17.13
2022-10-23T17:51:39.577Z,17.19
2022-10-23T17:54:08.985Z,17.23
2022-10-23T17:56:37.704Z,17.21
2022-10-23T17:59:11.556Z,17.18
2022-10-23T18:04:29.401Z,17.20
2022-10-23T18:06:56.011Z,17.19
2022-10-23T18:09:23.380Z,17.25
2022-10-23T18:11:50.330Z,17.27
2022-10-23T18:14:18.636Z,17.24
2022-10-23T18:16:46.094Z,17.24
2022-10-23T18:19:13.837Z,17.23
2022-10-23T18:21:40.551Z,17.24
2022-10-23T18:24:13.691Z,17.25
2022-10-23T18:26:41.372Z,17.24
2022-10-23T18:29:08.720Z,17.23
2022-10-23T18:31:37.520Z,17.23
2022-10-23T18:34:09.297Z,17.21
2022-10-23T18:36:38.916Z,17.23
2022-10-23T18:39:07.415Z,17.21
2022-10-23T18:41:36.231Z,17.20
2022-10-23T18:44:03.472Z,17.17
2022-10-23T18:46:30.215Z,17.18
2022-10-23T18:48:56.877Z,17.16
2022-10-23T18:51:26.644Z,17.17
2022-10-23T18:53:53.426Z,17.17
2022-10-23T18:56:23.504Z,17.15
2022-10-23T18:58:55.150Z,17.16
2022-10-23T19:01:22.693Z,17.14
2022-10-23T19:03:49.888Z,17.17
2022-10-23T19:06:17.733Z,17.18
2022-10-23T19:08:44.906Z,17.23
2022-10-23T19:11:23.059Z,17.23
2022-10-23T19:13:50.269Z,17.22
2022-10-23T19:16:19.984Z,17.25
2022-10-23T19:18:50.754Z,17.26
2022-10-23T19:21:18.755Z,17.25
2022-10-23T19:23:45.504Z,17.23
2022-10-23T19:26:16.261Z,17.22
2022-10-23T19:28:45.580Z,17.22
2022-10-23T19:31:13.213Z,17.20
2022-10-23T19:33:40.332Z,17.21
2022-10-23T19:36:13.876Z,17.23
2022-10-23T19:38:42.380Z,17.23
2022-10-23T19:41:09.829Z,17.24
2022-10-23T19:43:45.385Z,17.24
2022-10-23T19:46:14.953Z,17.22
2022-10-23T19:48:46.117Z,17.25
2022-10-23T19:51:25.047Z,17.22
2022-10-23T19:53:54.645Z,17.22
2022-10-23T19:56:21.641Z,17.22
2022-10-23T19:58:49.962Z,17.20
2022-10-23T20:01:20.445Z,17.22
2022-10-23T20:03:50.480Z,17.19
2022-10-23T20:06:22.271Z,17.19
2022-10-23T20:08:49.018Z,17.18
2022-10-23T20:11:24.723Z,17.19
2022-10-23T20:13:54.940Z,17.16
2022-10-23T20:16:33.210Z,17.13
2022-10-23T20:19:02.384Z,17.12
2022-10-23T20:21:29.356Z,17.11
2022-10-23T20:23:59.410Z,17.07
2022-10-23T20:26:26.314Z,17.09
2022-10-23T20:28:55.149Z,17.11
2022-10-23T20:31:23.767Z,17.08
2022-10-23T20:33:51.307Z,17.06
2022-10-23T20:36:28.231Z,16.99
2022-10-23T20:38:55.680Z,17.01
2022-10-23T20:41:25.102Z,17.07
2022-10-23T20:43:51.925Z,17.01
2022-10-23T20:46:18.684Z,16.86
2022-10-23T20:48:46.076Z,16.70
2022-10-23T20:51:14.836Z,16.65
2022-10-23T20:53:42.306Z,16.61
2022-10-23T20:56:12.571Z,16.60
2022-10-23T20:58:39.222Z,16.60
2022-10-23T21:01:08.923Z,16.59
2022-10-23T21:03:36.381Z,16.53
2022-10-23T21:06:11.907Z,16.50
2022-10-23T21:08:43.922Z,16.50
2022-10-23T21:11:12.364Z,16.48
2022-10-23T21:13:39.008Z,16.48
2022-10-23T21:16:23.627Z,16.44
2022-10-23T21:18:52.930Z,16.39
2022-10-23T21:21:20.984Z,16.34
2022-10-23T21:23:49.760Z,16.36
2022-10-23T21:26:17.946Z,16.39
2022-10-23T21:29:00.940Z,16.39
2022-10-23T21:31:33.922Z,16.40
2022-10-23T21:34:00.693Z,16.38
2022-10-23T21:36:29.263Z,16.38
2022-10-23T21:38:58.911Z,16.30
2022-10-23T21:41:30.689Z,16.37
2022-10-23T21:43:59.829Z,16.35
2022-10-23T21:46:27.544Z,16.36
2022-10-23T21:48:54.319Z,16.29
2022-10-23T21:51:29.530Z,16.28
2022-10-23T21:53:56.592Z,16.27
2022-10-23T21:56:32.556Z,16.25
2022-10-23T21:59:00.910Z,16.23
2022-10-23T22:01:28.096Z,16.28
2022-10-23T22:03:55.147Z,16.30
2022-10-23T22:06:27.870Z,16.32
2022-10-23T22:08:56.478Z,16.33
2022-10-23T22:11:23.593Z,16.33
2022-10-23T22:13:50.221Z,16.35
2022-10-23T22:16:17.380Z,16.37
2022-10-23T22:18:44.340Z,16.41
2022-10-23T22:21:14.105Z,16.46
2022-10-23T22:23:41.135Z,16.47
2022-10-23T22:26:29.257Z,16.43
2022-10-23T22:28:58.221Z,16.42
2022-10-23T22:31:26.966Z,16.41
2022-10-23T22:33:54.220Z,16.45
2022-10-23T22:36:20.975Z,16.48
2022-10-23T22:38:47.655Z,16.51
2022-10-23T22:41:14.569Z,16.54
2022-10-23T22:43:41.269Z,16.53
2022-10-23T22:46:12.941Z,16.55
2022-10-23T22:48:40.142Z,16.56
2022-10-23T22:51:09.210Z,16.56
2022-10-23T22:53:36.355Z,16.54
2022-10-23T22:56:10.025Z,16.53
2022-10-23T22:58:36.793Z,16.51
2022-10-23T23:01:15.545Z,16.52
2022-10-23T23:03:43.050Z,16.53
2022-10-23T23:06:10.412Z,16.50
2022-10-23T23:08:38.244Z,16.49
2022-10-23T23:11:05.896Z,16.53
2022-10-23T23:13:32.568Z,16.57
2022-10-23T23:15:59.271Z,16.54
2022-10-23T23:18:26.643Z,16.58
2022-10-23T23:20:53.322Z,16.60
2022-10-23T23:23:20.067Z,16.61
2022-10-23T23:25:48.768Z,16.61
2022-10-23T23:28:17.473Z,16.61
2022-10-23T23:33:12.205Z,16.63
2022-10-23T23:35:43.549Z,16.63
2022-10-23T23:38:12.550Z,16.68
2022-10-23T23:40:39.990Z,16.71
2022-10-23T23:43:06.911Z,16.72
2022-10-23T23:45:33.541Z,16.73
2022-10-23T23:48:00.192Z,16.71
2022-10-23T23:50:28.106Z,16.71
2022-10-23T23:52:54.756Z,16.73
2022-10-23T23:55:21.528Z,16.69
2022-10-23T23:57:48.197Z,16.70
